sensor_id;sensor_type;location;lat;lon;timestamp;P1;durP1;ratioP1;P2;durP2;ratioP2
22786;SDS011;63134;52.020;4.714;2024-03-23T00:54:01;21.38;;;5.60;;
22786;SDS011;63134;52.020;4.714;2024-03-23T00:56:47;16.85;;;5.38;;
22786;SDS011;63134;52.020;4.714;2024-03-23T00:59:32;13.45;;;5.07;;
22786;SDS011;63134;52.020;4.714;2024-03-23T01:02:16;19.40;;;5.07;;
22786;SDS011;63134;52.020;4.714;2024-03-23T01:05:01;19.00;;;5.80;;
22786;SDS011;63134;52.020;4.714;2024-03-23T01:07:46;16.52;;;5.03;;
22786;SDS011;63134;52.020;4.714;2024-03-23T01:10:30;11.23;;;4.90;;
22786;SDS011;63134;52.020;4.714;2024-03-23T01:13:15;13.65;;;4.70;;
22786;SDS011;63134;52.020;4.714;2024-03-23T01:15:59;13.10;;;5.00;;
22786;SDS011;63134;52.020;4.714;2024-03-23T01:18:44;16.98;;;5.05;;
22786;SDS011;63134;52.020;4.714;2024-03-23T01:21:29;20.38;;;5.78;;
22786;SDS011;63134;52.020;4.714;2024-03-23T01:24:14;12.93;;;5.35;;
22786;SDS011;63134;52.020;4.714;2024-03-23T01:26:58;15.63;;;5.30;;
22786;SDS011;63134;52.020;4.714;2024-03-23T01:29:43;14.38;;;4.63;;
22786;SDS011;63134;52.020;4.714;2024-03-23T01:32:27;17.80;;;5.03;;
22786;SDS011;63134;52.020;4.714;2024-03-23T01:35:12;20.45;;;5.47;;
22786;SDS011;63134;52.020;4.714;2024-03-23T01:40:41;14.50;;;4.40;;
22786;SDS011;63134;52.020;4.714;2024-03-23T01:43:25;14.88;;;4.93;;
22786;SDS011;63134;52.020;4.714;2024-03-23T01:46:10;17.95;;;4.57;;
22786;SDS011;63134;52.020;4.714;2024-03-23T01:51:42;14.75;;;4.10;;
22786;SDS011;63134;52.020;4.714;2024-03-23T01:54:28;16.63;;;4.65;;
22786;SDS011;63134;52.020;4.714;2024-03-23T01:57:13;19.77;;;5.53;;
22786;SDS011;63134;52.020;4.714;2024-03-23T01:59:58;14.70;;;4.53;;
22786;SDS011;63134;52.020;4.714;2024-03-23T02:02:45;20.08;;;5.03;;
22786;SDS011;63134;52.020;4.714;2024-03-23T02:05:30;11.43;;;3.88;;
22786;SDS011;63134;52.020;4.714;2024-03-23T02:08:16;13.35;;;4.10;;
22786;SDS011;63134;52.020;4.714;2024-03-23T02:11:01;19.00;;;3.80;;
22786;SDS011;63134;52.020;4.714;2024-03-23T02:13:46;15.93;;;3.92;;
22786;SDS011;63134;52.020;4.714;2024-03-23T02:16:31;18.33;;;3.97;;
22786;SDS011;63134;52.020;4.714;2024-03-23T02:19:15;16.90;;;3.47;;
22786;SDS011;63134;52.020;4.714;2024-03-23T02:22:00;13.27;;;3.58;;
22786;SDS011;63134;52.020;4.714;2024-03-23T02:24:45;12.15;;;3.00;;
22786;SDS011;63134;52.020;4.714;2024-03-23T02:27:29;10.23;;;3.38;;
22786;SDS011;63134;52.020;4.714;2024-03-23T02:30:14;10.60;;;3.30;;
22786;SDS011;63134;52.020;4.714;2024-03-23T02:32:58;9.57;;;3.15;;
22786;SDS011;63134;52.020;4.714;2024-03-23T02:35:46;13.02;;;2.90;;
22786;SDS011;63134;52.020;4.714;2024-03-23T02:38:31;17.88;;;3.20;;
22786;SDS011;63134;52.020;4.714;2024-03-23T02:41:16;11.25;;;3.05;;
22786;SDS011;63134;52.020;4.714;2024-03-23T02:44:06;12.05;;;3.00;;
22786;SDS011;63134;52.020;4.714;2024-03-23T02:46:51;7.45;;;2.80;;
22786;SDS011;63134;52.020;4.714;2024-03-23T02:49:39;9.77;;;2.88;;
22786;SDS011;63134;52.020;4.714;2024-03-23T02:52:23;13.13;;;2.78;;
22786;SDS011;63134;52.020;4.714;2024-03-23T02:55:11;7.35;;;2.40;;
22786;SDS011;63134;52.020;4.714;2024-03-23T02:57:56;13.25;;;2.75;;
22786;SDS011;63134;52.020;4.714;2024-03-23T03:00:45;10.25;;;3.15;;
22786;SDS011;63134;52.020;4.714;2024-03-23T03:03:30;12.13;;;2.70;;
22786;SDS011;63134;52.020;4.714;2024-03-23T03:06:22;11.02;;;3.38;;
22786;SDS011;63134;52.020;4.714;2024-03-23T03:09:07;7.75;;;2.50;;
22786;SDS011;63134;52.020;4.714;2024-03-23T03:11:52;17.85;;;3.70;;
22786;SDS011;63134;52.020;4.714;2024-03-23T03:14:37;7.47;;;2.50;;
22786;SDS011;63134;52.020;4.714;2024-03-23T03:17:21;8.98;;;2.42;;
22786;SDS011;63134;52.020;4.714;2024-03-23T03:20:08;11.00;;;2.90;;
22786;SDS011;63134;52.020;4.714;2024-03-23T03:22:57;11.70;;;3.03;;
22786;SDS011;63134;52.020;4.714;2024-03-23T03:25:41;14.85;;;2.83;;
22786;SDS011;63134;52.020;4.714;2024-03-23T03:28:26;6.55;;;2.70;;
22786;SDS011;63134;52.020;4.714;2024-03-23T03:31:14;9.80;;;2.70;;
22786;SDS011;63134;52.020;4.714;2024-03-23T03:34:00;8.27;;;2.53;;
22786;SDS011;63134;52.020;4.714;2024-03-23T03:36:45;11.85;;;3.95;;
22786;SDS011;63134;52.020;4.714;2024-03-23T03:39:29;14.02;;;3.10;;
22786;SDS011;63134;52.020;4.714;2024-03-23T03:42:14;5.13;;;2.50;;
22786;SDS011;63134;52.020;4.714;2024-03-23T03:44:58;13.23;;;3.08;;
22786;SDS011;63134;52.020;4.714;2024-03-23T03:47:43;8.68;;;2.40;;
22786;SDS011;63134;52.020;4.714;2024-03-23T03:50:28;5.82;;;2.13;;
22786;SDS011;63134;52.020;4.714;2024-03-23T03:53:12;11.43;;;2.67;;
22786;SDS011;63134;52.020;4.714;2024-03-23T03:56:00;14.30;;;2.95;;
22786;SDS011;63134;52.020;4.714;2024-03-23T03:58:45;11.85;;;3.10;;
22786;SDS011;63134;52.020;4.714;2024-03-23T04:01:30;7.82;;;2.60;;
22786;SDS011;63134;52.020;4.714;2024-03-23T04:04:15;15.15;;;2.70;;
22786;SDS011;63134;52.020;4.714;2024-03-23T04:07:01;10.35;;;2.28;;
22786;SDS011;63134;52.020;4.714;2024-03-23T04:09:46;9.80;;;2.40;;
22786;SDS011;63134;52.020;4.714;2024-03-23T04:12:31;7.82;;;2.55;;
22786;SDS011;63134;52.020;4.714;2024-03-23T04:15:15;9.80;;;3.20;;
22786;SDS011;63134;52.020;4.714;2024-03-23T04:18:00;9.80;;;2.88;;
22786;SDS011;63134;52.020;4.714;2024-03-23T04:20:45;9.00;;;2.97;;
22786;SDS011;63134;52.020;4.714;2024-03-23T04:23:30;8.85;;;2.30;;
22786;SDS011;63134;52.020;4.714;2024-03-23T04:26:15;9.05;;;2.20;;
22786;SDS011;63134;52.020;4.714;2024-03-23T04:29:00;6.57;;;2.50;;
22786;SDS011;63134;52.020;4.714;2024-03-23T04:31:45;9.48;;;2.70;;
22786;SDS011;63134;52.020;4.714;2024-03-23T04:34:30;9.05;;;2.55;;
22786;SDS011;63134;52.020;4.714;2024-03-23T04:37:14;8.18;;;2.15;;
22786;SDS011;63134;52.020;4.714;2024-03-23T04:40:00;5.47;;;1.67;;
22786;SDS011;63134;52.020;4.714;2024-03-23T04:42:46;8.85;;;2.70;;
22786;SDS011;63134;52.020;4.714;2024-03-23T04:45:31;9.10;;;2.50;;
22786;SDS011;63134;52.020;4.714;2024-03-23T04:48:16;9.93;;;2.47;;
22786;SDS011;63134;52.020;4.714;2024-03-23T04:51:01;7.53;;;2.58;;
22786;SDS011;63134;52.020;4.714;2024-03-23T04:53:46;6.65;;;1.90;;
22786;SDS011;63134;52.020;4.714;2024-03-23T04:56:32;5.55;;;2.10;;
22786;SDS011;63134;52.020;4.714;2024-03-23T04:59:17;5.80;;;2.63;;
22786;SDS011;63134;52.020;4.714;2024-03-23T05:02:01;12.95;;;2.47;;
22786;SDS011;63134;52.020;4.714;2024-03-23T05:04:47;13.85;;;3.00;;
22786;SDS011;63134;52.020;4.714;2024-03-23T05:07:31;7.85;;;2.28;;
22786;SDS011;63134;52.020;4.714;2024-03-23T05:10:16;11.73;;;3.17;;
22786;SDS011;63134;52.020;4.714;2024-03-23T05:13:01;10.57;;;3.47;;
22786;SDS011;63134;52.020;4.714;2024-03-23T05:15:50;10.35;;;2.50;;
22786;SDS011;63134;52.020;4.714;2024-03-23T05:18:39;7.53;;;2.38;;
22786;SDS011;63134;52.020;4.714;2024-03-23T05:21:27;9.20;;;2.60;;
22786;SDS011;63134;52.020;4.714;2024-03-23T05:24:14;12.82;;;2.92;;
22786;SDS011;63134;52.020;4.714;2024-03-23T05:26:58;7.47;;;2.45;;
22786;SDS011;63134;52.020;4.714;2024-03-23T05:29:43;6.57;;;2.63;;
22786;SDS011;63134;52.020;4.714;2024-03-23T05:32:28;16.05;;;3.10;;
22786;SDS011;63134;52.020;4.714;2024-03-23T05:37:57;13.80;;;3.47;;
22786;SDS011;63134;52.020;4.714;2024-03-23T05:40:52;15.00;;;3.97;;
22786;SDS011;63134;52.020;4.714;2024-03-23T05:43:43;13.20;;;3.25;;
22786;SDS011;63134;52.020;4.714;2024-03-23T05:46:28;12.80;;;3.75;;
22786;SDS011;63134;52.020;4.714;2024-03-23T05:49:12;9.70;;;3.28;;
22786;SDS011;63134;52.020;4.714;2024-03-23T05:51:57;16.25;;;3.25;;
22786;SDS011;63134;52.020;4.714;2024-03-23T05:54:42;9.25;;;3.20;;
22786;SDS011;63134;52.020;4.714;2024-03-23T05:57:27;10.60;;;2.63;;
22786;SDS011;63134;52.020;4.714;2024-03-23T06:00:11;11.05;;;3.45;;
22786;SDS011;63134;52.020;4.714;2024-03-23T06:03:01;12.43;;;3.78;;
22786;SDS011;63134;52.020;4.714;2024-03-23T06:05:46;14.82;;;4.22;;
22786;SDS011;63134;52.020;4.714;2024-03-23T06:08:31;16.50;;;4.25;;
22786;SDS011;63134;52.020;4.714;2024-03-23T06:11:15;20.08;;;4.03;;
22786;SDS011;63134;52.020;4.714;2024-03-23T06:14:00;20.15;;;5.10;;
22786;SDS011;63134;52.020;4.714;2024-03-23T06:16:45;10.05;;;3.17;;
22786;SDS011;63134;52.020;4.714;2024-03-23T06:19:29;10.18;;;3.60;;
22786;SDS011;63134;52.020;4.714;2024-03-23T06:22:14;12.23;;;3.40;;
22786;SDS011;63134;52.020;4.714;2024-03-23T06:24:59;12.68;;;3.65;;
22786;SDS011;63134;52.020;4.714;2024-03-23T06:27:44;11.38;;;3.65;;
22786;SDS011;63134;52.020;4.714;2024-03-23T06:30:28;12.23;;;3.65;;
22786;SDS011;63134;52.020;4.714;2024-03-23T06:33:14;13.48;;;3.83;;
22786;SDS011;63134;52.020;4.714;2024-03-23T06:35:58;15.57;;;3.80;;
22786;SDS011;63134;52.020;4.714;2024-03-23T06:38:43;16.05;;;3.83;;
22786;SDS011;63134;52.020;4.714;2024-03-23T06:41:29;17.75;;;3.78;;
22786;SDS011;63134;52.020;4.714;2024-03-23T06:44:14;12.52;;;3.20;;
22786;SDS011;63134;52.020;4.714;2024-03-23T06:46:59;12.77;;;3.08;;
22786;SDS011;63134;52.020;4.714;2024-03-23T06:49:44;15.02;;;3.97;;
22786;SDS011;63134;52.020;4.714;2024-03-23T06:52:29;10.60;;;2.78;;
22786;SDS011;63134;52.020;4.714;2024-03-23T06:55:14;14.40;;;3.75;;
22786;SDS011;63134;52.020;4.714;2024-03-23T06:57:59;11.80;;;2.88;;
22786;SDS011;63134;52.020;4.714;2024-03-23T07:00:43;10.98;;;3.47;;
22786;SDS011;63134;52.020;4.714;2024-03-23T07:03:28;15.00;;;3.20;;
22786;SDS011;63134;52.020;4.714;2024-03-23T07:06:13;15.63;;;3.75;;
22786;SDS011;63134;52.020;4.714;2024-03-23T07:08:57;14.38;;;3.72;;
22786;SDS011;63134;52.020;4.714;2024-03-23T07:11:42;12.57;;;2.65;;
22786;SDS011;63134;52.020;4.714;2024-03-23T07:14:27;13.15;;;3.30;;
22786;SDS011;63134;52.020;4.714;2024-03-23T07:17:11;14.52;;;3.20;;
22786;SDS011;63134;52.020;4.714;2024-03-23T07:19:56;13.80;;;2.95;;
22786;SDS011;63134;52.020;4.714;2024-03-23T07:22:41;12.98;;;2.95;;
22786;SDS011;63134;52.020;4.714;2024-03-23T07:25:25;13.30;;;2.92;;
22786;SDS011;63134;52.020;4.714;2024-03-23T07:28:11;11.10;;;2.70;;
22786;SDS011;63134;52.020;4.714;2024-03-23T07:33:54;12.95;;;3.13;;
22786;SDS011;63134;52.020;4.714;2024-03-23T07:36:38;10.65;;;2.95;;
22786;SDS011;63134;52.020;4.714;2024-03-23T07:39:26;14.35;;;3.30;;
22786;SDS011;63134;52.020;4.714;2024-03-23T07:42:12;18.80;;;3.65;;
22786;SDS011;63134;52.020;4.714;2024-03-23T07:44:56;11.90;;;3.58;;
22786;SDS011;63134;52.020;4.714;2024-03-23T07:47:41;9.93;;;3.20;;
22786;SDS011;63134;52.020;4.714;2024-03-23T07:50:26;12.63;;;3.53;;
22786;SDS011;63134;52.020;4.714;2024-03-23T07:53:10;15.80;;;4.20;;
22786;SDS011;63134;52.020;4.714;2024-03-23T07:55:59;12.68;;;3.42;;
22786;SDS011;63134;52.020;4.714;2024-03-23T07:58:49;13.20;;;3.57;;
22786;SDS011;63134;52.020;4.714;2024-03-23T08:01:34;15.52;;;3.22;;
22786;SDS011;63134;52.020;4.714;2024-03-23T08:04:18;13.05;;;3.28;;
22786;SDS011;63134;52.020;4.714;2024-03-23T08:07:03;13.60;;;3.25;;
22786;SDS011;63134;52.020;4.714;2024-03-23T08:09:48;16.23;;;3.33;;
22786;SDS011;63134;52.020;4.714;2024-03-23T08:12:33;7.22;;;2.65;;
22786;SDS011;63134;52.020;4.714;2024-03-23T08:15:18;8.43;;;2.60;;
22786;SDS011;63134;52.020;4.714;2024-03-23T08:18:03;11.43;;;2.63;;
22786;SDS011;63134;52.020;4.714;2024-03-23T08:20:58;20.80;;;3.55;;
22786;SDS011;63134;52.020;4.714;2024-03-23T08:23:43;7.45;;;2.83;;
22786;SDS011;63134;52.020;4.714;2024-03-23T08:26:28;19.10;;;3.60;;
22786;SDS011;63134;52.020;4.714;2024-03-23T08:29:13;10.23;;;3.03;;
22786;SDS011;63134;52.020;4.714;2024-03-23T08:31:57;20.65;;;3.70;;
22786;SDS011;63134;52.020;4.714;2024-03-23T08:34:42;11.57;;;3.15;;
22786;SDS011;63134;52.020;4.714;2024-03-23T08:37:27;9.27;;;3.13;;
22786;SDS011;63134;52.020;4.714;2024-03-23T08:40:11;13.50;;;3.03;;
22786;SDS011;63134;52.020;4.714;2024-03-23T08:42:56;11.82;;;3.22;;
22786;SDS011;63134;52.020;4.714;2024-03-23T08:45:40;9.60;;;2.88;;
22786;SDS011;63134;52.020;4.714;2024-03-23T08:48:25;9.95;;;2.90;;
22786;SDS011;63134;52.020;4.714;2024-03-23T08:51:10;12.60;;;3.17;;
22786;SDS011;63134;52.020;4.714;2024-03-23T08:53:55;12.05;;;3.30;;
22786;SDS011;63134;52.020;4.714;2024-03-23T08:56:40;14.05;;;3.00;;
22786;SDS011;63134;52.020;4.714;2024-03-23T08:59:25;16.23;;;3.08;;
22786;SDS011;63134;52.020;4.714;2024-03-23T09:02:10;16.75;;;3.60;;
22786;SDS011;63134;52.020;4.714;2024-03-23T09:04:56;12.60;;;3.58;;
22786;SDS011;63134;52.020;4.714;2024-03-23T09:07:41;10.52;;;3.75;;
22786;SDS011;63134;52.020;4.714;2024-03-23T09:10:25;11.13;;;3.38;;
22786;SDS011;63134;52.020;4.714;2024-03-23T09:13:10;7.72;;;2.95;;
22786;SDS011;63134;52.020;4.714;2024-03-23T09:15:55;11.32;;;3.03;;
22786;SDS011;63134;52.020;4.714;2024-03-23T09:18:40;8.82;;;2.53;;
22786;SDS011;63134;52.020;4.714;2024-03-23T09:21:25;13.57;;;3.83;;
22786;SDS011;63134;52.020;4.714;2024-03-23T09:24:09;10.25;;;2.47;;
22786;SDS011;63134;52.020;4.714;2024-03-23T09:26:54;10.85;;;2.97;;
22786;SDS011;63134;52.020;4.714;2024-03-23T09:29:39;19.38;;;3.15;;
22786;SDS011;63134;52.020;4.714;2024-03-23T09:32:23;9.48;;;3.25;;
22786;SDS011;63134;52.020;4.714;2024-03-23T09:35:08;10.85;;;3.17;;
22786;SDS011;63134;52.020;4.714;2024-03-23T09:37:52;9.32;;;3.10;;
22786;SDS011;63134;52.020;4.714;2024-03-23T09:40:40;9.55;;;2.95;;
22786;SDS011;63134;52.020;4.714;2024-03-23T09:43:29;10.95;;;3.40;;
22786;SDS011;63134;52.020;4.714;2024-03-23T09:46:14;7.03;;;2.42;;
22786;SDS011;63134;52.020;4.714;2024-03-23T09:48:59;9.98;;;2.85;;
22786;SDS011;63134;52.020;4.714;2024-03-23T09:51:43;11.25;;;2.95;;
22786;SDS011;63134;52.020;4.714;2024-03-23T09:54:28;8.25;;;2.47;;
22786;SDS011;63134;52.020;4.714;2024-03-23T09:57:12;8.80;;;2.38;;
22786;SDS011;63134;52.020;4.714;2024-03-23T09:59:57;9.88;;;2.53;;
22786;SDS011;63134;52.020;4.714;2024-03-23T10:02:42;13.00;;;3.28;;
22786;SDS011;63134;52.020;4.714;2024-03-23T10:05:27;10.60;;;2.63;;
22786;SDS011;63134;52.020;4.714;2024-03-23T10:10:58;8.00;;;2.85;;
22786;SDS011;63134;52.020;4.714;2024-03-23T10:13:56;8.23;;;2.60;;
22786;SDS011;63134;52.020;4.714;2024-03-23T10:16:41;11.15;;;2.28;;
22786;SDS011;63134;52.020;4.714;2024-03-23T10:19:32;9.38;;;2.50;;
22786;SDS011;63134;52.020;4.714;2024-03-23T10:22:20;7.78;;;2.35;;
22786;SDS011;63134;52.020;4.714;2024-03-23T10:25:10;6.88;;;2.45;;
22786;SDS011;63134;52.020;4.714;2024-03-23T10:27:58;9.48;;;2.35;;
22786;SDS011;63134;52.020;4.714;2024-03-23T10:30:46;7.82;;;2.38;;
22786;SDS011;63134;52.020;4.714;2024-03-23T10:33:31;9.43;;;3.50;;
22786;SDS011;63134;52.020;4.714;2024-03-23T10:36:16;12.55;;;2.95;;
22786;SDS011;63134;52.020;4.714;2024-03-23T10:39:04;17.90;;;3.85;;
22786;SDS011;63134;52.020;4.714;2024-03-23T10:41:51;12.85;;;3.35;;
22786;SDS011;63134;52.020;4.714;2024-03-23T10:44:40;10.52;;;2.85;;
22786;SDS011;63134;52.020;4.714;2024-03-23T10:47:24;12.18;;;3.08;;
22786;SDS011;63134;52.020;4.714;2024-03-23T10:50:10;11.00;;;2.80;;
22786;SDS011;63134;52.020;4.714;2024-03-23T10:52:55;12.23;;;3.05;;
22786;SDS011;63134;52.020;4.714;2024-03-23T10:55:43;13.18;;;2.65;;
22786;SDS011;63134;52.020;4.714;2024-03-23T10:58:31;10.02;;;3.42;;
22786;SDS011;63134;52.020;4.714;2024-03-23T11:01:20;14.40;;;3.47;;
22786;SDS011;63134;52.020;4.714;2024-03-23T11:04:05;8.48;;;2.65;;
22786;SDS011;63134;52.020;4.714;2024-03-23T11:06:49;9.75;;;3.08;;
22786;SDS011;63134;52.020;4.714;2024-03-23T11:12:24;8.13;;;2.60;;
22786;SDS011;63134;52.020;4.714;2024-03-23T11:15:17;7.75;;;2.40;;
22786;SDS011;63134;52.020;4.714;2024-03-23T11:18:05;12.38;;;2.95;;
22786;SDS011;63134;52.020;4.714;2024-03-23T11:20:54;11.40;;;2.92;;
22786;SDS011;63134;52.020;4.714;2024-03-23T11:23:39;9.05;;;2.63;;
22786;SDS011;63134;52.020;4.714;2024-03-23T11:26:24;11.73;;;3.15;;
22786;SDS011;63134;52.020;4.714;2024-03-23T11:29:12;13.10;;;3.03;;
22786;SDS011;63134;52.020;4.714;2024-03-23T11:31:58;10.77;;;2.97;;
22786;SDS011;63134;52.020;4.714;2024-03-23T11:34:45;12.20;;;2.55;;
22786;SDS011;63134;52.020;4.714;2024-03-23T11:37:29;10.25;;;3.05;;
22786;SDS011;63134;52.020;4.714;2024-03-23T11:40:17;7.22;;;2.42;;
22786;SDS011;63134;52.020;4.714;2024-03-23T11:43:06;10.77;;;2.83;;
22786;SDS011;63134;52.020;4.714;2024-03-23T11:45:54;11.60;;;3.00;;
22786;SDS011;63134;52.020;4.714;2024-03-23T11:48:40;5.85;;;2.10;;
22786;SDS011;63134;52.020;4.714;2024-03-23T11:51:24;10.23;;;2.40;;
22786;SDS011;63134;52.020;4.714;2024-03-23T11:54:16;10.93;;;2.17;;
22786;SDS011;63134;52.020;4.714;2024-03-23T11:57:01;9.20;;;2.45;;
22786;SDS011;63134;52.020;4.714;2024-03-23T11:59:51;7.30;;;2.58;;
22786;SDS011;63134;52.020;4.714;2024-03-23T12:02:36;10.10;;;2.55;;
22786;SDS011;63134;52.020;4.714;2024-03-23T12:05:22;8.65;;;2.88;;
22786;SDS011;63134;52.020;4.714;2024-03-23T12:08:19;9.45;;;3.03;;
22786;SDS011;63134;52.020;4.714;2024-03-23T12:11:15;10.15;;;2.72;;
22786;SDS011;63134;52.020;4.714;2024-03-23T12:14:01;9.10;;;2.97;;
22786;SDS011;63134;52.020;4.714;2024-03-23T12:16:46;9.77;;;2.95;;
22786;SDS011;63134;52.020;4.714;2024-03-23T12:19:30;9.70;;;2.70;;
22786;SDS011;63134;52.020;4.714;2024-03-23T12:22:15;11.40;;;2.88;;
22786;SDS011;63134;52.020;4.714;2024-03-23T12:25:05;9.68;;;2.30;;
22786;SDS011;63134;52.020;4.714;2024-03-23T12:27:52;6.60;;;2.20;;
22786;SDS011;63134;52.020;4.714;2024-03-23T12:30:38;8.65;;;2.65;;
22786;SDS011;63134;52.020;4.714;2024-03-23T12:33:24;9.63;;;2.55;;
22786;SDS011;63134;52.020;4.714;2024-03-23T12:36:08;10.73;;;2.53;;
22786;SDS011;63134;52.020;4.714;2024-03-23T12:38:53;3.70;;;1.85;;
22786;SDS011;63134;52.020;4.714;2024-03-23T12:41:38;7.32;;;1.95;;
22786;SDS011;63134;52.020;4.714;2024-03-23T12:44:22;4.43;;;1.65;;
22786;SDS011;63134;52.020;4.714;2024-03-23T12:47:07;5.82;;;1.77;;
22786;SDS011;63134;52.020;4.714;2024-03-23T12:49:52;4.80;;;1.73;;
22786;SDS011;63134;52.020;4.714;2024-03-23T12:52:37;4.88;;;1.88;;
22786;SDS011;63134;52.020;4.714;2024-03-23T12:55:21;9.52;;;2.35;;
22786;SDS011;63134;52.020;4.714;2024-03-23T12:58:06;9.98;;;2.63;;
22786;SDS011;63134;52.020;4.714;2024-03-23T13:00:51;6.53;;;2.38;;
22786;SDS011;63134;52.020;4.714;2024-03-23T13:03:35;7.63;;;2.67;;
22786;SDS011;63134;52.020;4.714;2024-03-23T13:06:20;8.77;;;2.15;;
22786;SDS011;63134;52.020;4.714;2024-03-23T13:09:08;6.82;;;2.85;;
22786;SDS011;63134;52.020;4.714;2024-03-23T13:11:53;15.45;;;3.10;;
22786;SDS011;63134;52.020;4.714;2024-03-23T13:14:38;8.02;;;2.63;;
22786;SDS011;63134;52.020;4.714;2024-03-23T13:17:23;16.05;;;2.97;;
22786;SDS011;63134;52.020;4.714;2024-03-23T13:20:11;7.47;;;2.67;;
22786;SDS011;63134;52.020;4.714;2024-03-23T13:22:59;11.50;;;3.03;;
22786;SDS011;63134;52.020;4.714;2024-03-23T13:25:50;10.73;;;2.70;;
22786;SDS011;63134;52.020;4.714;2024-03-23T13:28:39;11.75;;;2.78;;
22786;SDS011;63134;52.020;4.714;2024-03-23T13:31:25;12.43;;;2.85;;
22786;SDS011;63134;52.020;4.714;2024-03-23T13:34:10;8.20;;;3.08;;
22786;SDS011;63134;52.020;4.714;2024-03-23T13:39:42;11.90;;;3.00;;
22786;SDS011;63134;52.020;4.714;2024-03-23T13:42:26;5.88;;;2.33;;
22786;SDS011;63134;52.020;4.714;2024-03-23T13:45:11;9.88;;;2.50;;
22786;SDS011;63134;52.020;4.714;2024-03-23T13:48:02;8.20;;;2.75;;
22786;SDS011;63134;52.020;4.714;2024-03-23T13:50:47;5.82;;;2.20;;
22786;SDS011;63134;52.020;4.714;2024-03-23T13:53:32;9.32;;;2.15;;
22786;SDS011;63134;52.020;4.714;2024-03-23T13:56:17;12.52;;;2.80;;
22786;SDS011;63134;52.020;4.714;2024-03-23T13:59:01;13.75;;;3.38;;
22786;SDS011;63134;52.020;4.714;2024-03-23T14:01:46;8.40;;;2.55;;
22786;SDS011;63134;52.020;4.714;2024-03-23T14:04:31;8.90;;;2.67;;
22786;SDS011;63134;52.020;4.714;2024-03-23T14:12:47;3.72;;;1.30;;
22786;SDS011;63134;52.020;4.714;2024-03-23T14:15:32;1.95;;;0.80;;
22786;SDS011;63134;52.020;4.714;2024-03-23T14:18:17;2.40;;;1.08;;
22786;SDS011;63134;52.020;4.714;2024-03-23T14:21:06;2.97;;;1.38;;
22786;SDS011;63134;52.020;4.714;2024-03-23T14:23:51;5.35;;;1.45;;
22786;SDS011;63134;52.020;4.714;2024-03-23T14:26:35;3.25;;;1.40;;
22786;SDS011;63134;52.020;4.714;2024-03-23T14:29:21;4.20;;;1.48;;
22786;SDS011;63134;52.020;4.714;2024-03-23T14:32:05;2.17;;;1.17;;
22786;SDS011;63134;52.020;4.714;2024-03-23T14:34:50;7.25;;;1.60;;
22786;SDS011;63134;52.020;4.714;2024-03-23T14:37:36;4.50;;;1.83;;
22786;SDS011;63134;52.020;4.714;2024-03-23T14:40:21;4.47;;;1.80;;
22786;SDS011;63134;52.020;4.714;2024-03-23T14:43:06;6.03;;;1.77;;
22786;SDS011;63134;52.020;4.714;2024-03-23T14:49:00;6.30;;;1.92;;
22786;SDS011;63134;52.020;4.714;2024-03-23T14:51:47;6.65;;;2.03;;
22786;SDS011;63134;52.020;4.714;2024-03-23T14:54:35;7.00;;;2.10;;
22786;SDS011;63134;52.020;4.714;2024-03-23T14:57:22;4.93;;;1.73;;
22786;SDS011;63134;52.020;4.714;2024-03-23T15:00:07;7.68;;;2.55;;
22786;SDS011;63134;52.020;4.714;2024-03-23T15:02:54;5.93;;;2.20;;
22786;SDS011;63134;52.020;4.714;2024-03-23T15:05:39;4.53;;;1.77;;
22786;SDS011;63134;52.020;4.714;2024-03-23T15:08:24;5.78;;;1.90;;
22786;SDS011;63134;52.020;4.714;2024-03-23T15:11:09;7.78;;;2.38;;
22786;SDS011;63134;52.020;4.714;2024-03-23T15:13:53;6.43;;;2.25;;
22786;SDS011;63134;52.020;4.714;2024-03-23T15:16:39;5.20;;;1.85;;
22786;SDS011;63134;52.020;4.714;2024-03-23T15:19:23;8.07;;;2.17;;
22786;SDS011;63134;52.020;4.714;2024-03-23T15:22:08;5.80;;;1.70;;
22786;SDS011;63134;52.020;4.714;2024-03-23T15:24:54;6.18;;;2.15;;
22786;SDS011;63134;52.020;4.714;2024-03-23T15:27:38;8.48;;;2.50;;
22786;SDS011;63134;52.020;4.714;2024-03-23T15:30:23;7.10;;;2.13;;
22786;SDS011;63134;52.020;4.714;2024-03-23T15:33:08;4.07;;;1.60;;
22786;SDS011;63134;52.020;4.714;2024-03-23T15:35:52;5.53;;;2.22;;
22786;SDS011;63134;52.020;4.714;2024-03-23T15:38:37;6.88;;;1.83;;
22786;SDS011;63134;52.020;4.714;2024-03-23T15:41:22;6.13;;;1.83;;
22786;SDS011;63134;52.020;4.714;2024-03-23T15:44:08;7.80;;;2.00;;
22786;SDS011;63134;52.020;4.714;2024-03-23T15:46:53;6.53;;;1.98;;
22786;SDS011;63134;52.020;4.714;2024-03-23T15:49:37;6.28;;;1.88;;
22786;SDS011;63134;52.020;4.714;2024-03-23T15:52:22;4.70;;;2.03;;
22786;SDS011;63134;52.020;4.714;2024-03-23T15:55:07;7.13;;;1.60;;
22786;SDS011;63134;52.020;4.714;2024-03-23T15:57:57;6.30;;;1.70;;
22786;SDS011;63134;52.020;4.714;2024-03-23T16:00:41;2.88;;;1.30;;
22786;SDS011;63134;52.020;4.714;2024-03-23T16:03:26;6.88;;;1.92;;
22786;SDS011;63134;52.020;4.714;2024-03-23T16:06:15;4.22;;;1.23;;
22786;SDS011;63134;52.020;4.714;2024-03-23T16:09:01;4.60;;;1.65;;
22786;SDS011;63134;52.020;4.714;2024-03-23T16:11:47;4.13;;;1.25;;
22786;SDS011;63134;52.020;4.714;2024-03-23T16:14:31;1.67;;;1.13;;
22786;SDS011;63134;52.020;4.714;2024-03-23T16:17:16;3.95;;;1.52;;
22786;SDS011;63134;52.020;4.714;2024-03-23T16:20:02;3.42;;;1.60;;
22786;SDS011;63134;52.020;4.714;2024-03-23T16:22:47;5.38;;;1.70;;
22786;SDS011;63134;52.020;4.714;2024-03-23T16:25:32;5.55;;;1.60;;
22786;SDS011;63134;52.020;4.714;2024-03-23T16:28:17;4.13;;;1.73;;
22786;SDS011;63134;52.020;4.714;2024-03-23T16:31:05;5.55;;;1.60;;
22786;SDS011;63134;52.020;4.714;2024-03-23T16:33:50;6.25;;;1.88;;
22786;SDS011;63134;52.020;4.714;2024-03-23T16:36:36;4.22;;;1.70;;
22786;SDS011;63134;52.020;4.714;2024-03-23T16:39:21;12.02;;;1.67;;
22786;SDS011;63134;52.020;4.714;2024-03-23T16:42:05;5.57;;;1.55;;
22786;SDS011;63134;52.020;4.714;2024-03-23T16:44:50;3.75;;;1.73;;
22786;SDS011;63134;52.020;4.714;2024-03-23T16:47:38;9.27;;;1.90;;
22786;SDS011;63134;52.020;4.714;2024-03-23T16:50:24;3.85;;;1.98;;
22786;SDS011;63134;52.020;4.714;2024-03-23T16:53:09;7.93;;;1.70;;
22786;SDS011;63134;52.020;4.714;2024-03-23T16:55:54;7.05;;;1.98;;
22786;SDS011;63134;52.020;4.714;2024-03-23T16:58:43;7.30;;;1.60;;
22786;SDS011;63134;52.020;4.714;2024-03-23T17:01:30;5.90;;;1.70;;
22786;SDS011;63134;52.020;4.714;2024-03-23T17:04:14;5.38;;;1.80;;
22786;SDS011;63134;52.020;4.714;2024-03-23T17:06:59;8.27;;;1.60;;
22786;SDS011;63134;52.020;4.714;2024-03-23T17:09:47;5.80;;;2.00;;
22786;SDS011;63134;52.020;4.714;2024-03-23T17:12:32;7.35;;;1.70;;
22786;SDS011;63134;52.020;4.714;2024-03-23T17:15:16;6.50;;;1.63;;
22786;SDS011;63134;52.020;4.714;2024-03-23T17:18:05;5.82;;;1.70;;
22786;SDS011;63134;52.020;4.714;2024-03-23T17:20:50;4.88;;;1.23;;
22786;SDS011;63134;52.020;4.714;2024-03-23T17:23:35;4.45;;;1.48;;
22786;SDS011;63134;52.020;4.714;2024-03-23T17:26:20;3.58;;;1.58;;
22786;SDS011;63134;52.020;4.714;2024-03-23T17:31:49;4.10;;;1.60;;
22786;SDS011;63134;52.020;4.714;2024-03-23T17:34:33;5.88;;;2.53;;
22786;SDS011;63134;52.020;4.714;2024-03-23T17:37:18;10.10;;;1.90;;
22786;SDS011;63134;52.020;4.714;2024-03-23T17:40:02;10.65;;;2.15;;
22786;SDS011;63134;52.020;4.714;2024-03-23T17:42:50;5.57;;;2.05;;
22786;SDS011;63134;52.020;4.714;2024-03-23T17:45:35;9.02;;;1.98;;
22786;SDS011;63134;52.020;4.714;2024-03-23T17:48:27;7.45;;;2.22;;
22786;SDS011;63134;52.020;4.714;2024-03-23T17:51:11;6.32;;;1.77;;
22786;SDS011;63134;52.020;4.714;2024-03-23T17:53:57;6.30;;;1.42;;